Outage due to equipment failure. Site will not be transmitting information for the foreseeable future.

Latest Weather Observations for Rundle Island

IDQ60801

Issued at 2:05 pm EST Tuesday 23 September 2014 (issued every 30 minutes, with the page automatically refreshed every 10 minutes)

About weather observations | Map of weather stations | Latest weather observations for QLD | Other Formats
Station Details ID: 039322 Name: RUNDLE ISLAND Lat: -23.53 Lon: 151.28 Height: 19.8 m
Data from the previous 72 hours. | See also: Recent months at Rundle Island
Date/Time
EST
Temp
°C
App
Temp
°C
Dew
Point
Rel
Hum
%
Delta-T
°C
Wind Press
QNH
hPa
Press
MSL
hPa
Rain
since 9 am
mm
Dir
 
Spd
km/h
Gust
km/h
Spd
kts
Gust
kts
23/02:00pm 19.7 - - - - ESE 39 44 21 24 1022.3 1022.2 -
23/01:30pm 20.0 - - - - ESE 44 52 24 28 1022.5 1022.4 -
23/01:00pm 18.7 - - - - ESE 46 57 25 31 1022.5 1022.4 -
23/12:46pm 19.8 - - - - ESE 35 54 19 29 1022.7 1022.6 -
23/12:30pm 19.4 - - - - E 24 32 13 17 1023.0 1022.9 -
23/12:13pm 17.5 - - - - E 44 65 24 35 1023.1 1023.0 -
23/12:09pm 17.9 - - - - E 56 65 30 35 1022.6 1022.5 -
23/12:05pm 19.8 - - - - E 33 59 18 32 1023.1 1023.0 -
23/12:00pm 20.4 - - - - E 28 35 15 19 1023.2 1023.1 -
23/11:42am 19.3 - - - - ESE 46 52 25 28 1023.3 1023.2 -
23/11:30am 21.2 - - - - ESE 24 30 13 16 1023.6 1023.5 -
23/11:00am 21.7 - - - - E 33 41 18 22 1023.7 1023.6 -
23/10:30am 21.8 - - - - E 35 41 19 22 1023.9 1023.8 -
23/10:00am 21.8 - - - - E 35 41 19 22 1024.1 1024.0 -
23/09:30am 20.3 - - - - SE 32 37 17 20 1024.5 1024.4 -
23/09:00am 20.2 - - - - SE 33 39 18 21 1024.3 1024.2 -
23/08:30am 21.5 - - - - ESE 32 35 17 19 1023.9 1023.8 -
23/08:00am 20.8 - - - - E 33 37 18 20 1023.6 1023.5 -
23/07:30am 21.0 - - - - ESE 32 37 17 20 1023.3 1023.2 -
23/07:00am 20.6 - - - - E 30 37 16 20 1022.9 1022.8 -
23/06:30am 20.6 - - - - ESE 39 46 21 25 1022.2 1022.1 -
23/06:12am 20.8 - - - - ESE 37 44 20 24 1022.2 1022.1 -
23/06:00am 19.7 - - - - E 17 22 9 12 1022.5 1022.4 -
23/05:30am 19.8 - - - - ESE 26 33 14 18 1022.3 1022.2 -
23/05:00am 20.1 - - - - E 30 35 16 19 1021.9 1021.8 -
23/04:43am 19.9 - - - - E 37 44 20 24 1021.7 1021.6 -
23/04:30am 20.9 - - - - ESE 35 39 19 21 1021.6 1021.5 -
23/04:00am 20.9 - - - - ESE 35 41 19 22 1021.2 1021.1 -
23/03:30am 20.9 - - - - ESE 37 43 20 23 1021.0 1020.9 -
23/03:16am 20.7 - - - - ESE 32 35 17 19 1021.0 1020.9 -
23/03:00am 20.0 - - - - SE 37 43 20 23 1021.3 1021.2 -
23/02:30am 20.2 - - - - SE 37 44 20 24 1021.2 1021.1 -
23/02:00am 20.3 - - - - ESE 32 39 17 21 1021.5 1021.4 -
23/01:30am 20.9 - - - - E 35 41 19 22 1021.7 1021.6 -
23/01:00am 20.8 - - - - ESE 35 41 19 22 1022.2 1022.1 -
23/12:30am 20.8 - - - - ESE 35 41 19 22 1022.4 1022.3 -
23/12:00am 19.7 - - - - SE 28 33 15 18 1022.7 1022.6 -
 
Date/Time
EST
Temp
°C
App
Temp
°C
Dew
Point
Rel
Hum
%
Delta-T
°C
Wind Press
QNH
hPa
Press
MSL
hPa
Rain
since 9 am
mm
Dir
 
Spd
km/h
Gust
km/h
Spd
kts
Gust
kts
22/11:30pm 19.1 - - - - ESE 37 52 20 28 1022.8 1022.7 -
22/11:04pm 20.1 - - - - ESE 41 59 22 32 1022.8 1022.7 -
22/11:00pm 21.0 - - - - ESE 39 46 21 25 1022.9 1022.8 -
22/10:30pm 21.1 - - - - ESE 41 50 22 27 1023.0 1022.9 -
22/10:00pm 20.9 - - - - ESE 39 48 21 26 1023.1 1023.0 -
22/09:30pm 20.3 - - - - E 48 57 26 31 1022.7 1022.6 -
22/09:00pm 19.4 - - - - ESE 43 61 23 33 1022.8 1022.7 -
22/08:30pm 18.1 - - - - ESE 48 63 26 34 1022.9 1022.8 -
22/08:00pm 19.0 - - - - ESE 52 61 28 33 1022.5 1022.4 -
22/07:30pm 19.3 - - - - ESE 56 69 30 37 1022.3 1022.2 -
22/07:00pm 19.5 - - - - ESE 57 69 31 37 1021.7 1021.6 -
22/06:45pm 18.2 - - - - SE 52 70 28 38 1021.3 1021.2 -
22/06:30pm 19.9 - - - - ESE 50 63 27 34 1021.5 1021.4 -
22/06:00pm 20.0 - - - - ESE 48 56 26 30 1021.3 1021.2 -
22/05:30pm 19.8 - - - - SE 52 61 28 33 1020.8 1020.7 -
22/05:00pm 19.9 - - - - SE 46 56 25 30 1020.5 1020.4 -
22/04:30pm 20.5 - - - - ESE 48 54 26 29 1019.9 1019.8 -
22/04:00pm 20.9 - - - - ESE 43 52 23 28 1019.6 1019.5 -
22/03:30pm 20.7 - - - - E 44 54 24 29 1019.3 1019.2 -
22/03:00pm 19.2 - - - - SE 46 54 25 29 1019.8 1019.7 -
22/02:30pm 19.4 - - - - SE 46 56 25 30 1019.7 1019.6 -
22/02:00pm 18.9 - - - - SE 41 48 22 26 1020.1 1020.0 -
22/01:30pm 18.4 - - - - SE 43 54 23 29 1020.6 1020.5 -
22/01:00pm 18.8 - - - - SE 41 52 22 28 1020.8 1020.7 -
22/12:30pm 19.0 - - - - SE 44 52 24 28 1021.0 1020.9 -
22/12:00pm 18.7 - - - - SE 41 46 22 25 1021.6 1021.5 -
22/11:30am 19.1 - - - - SE 44 54 24 29 1021.8 1021.7 -
22/11:00am 20.2 - - - - ESE 33 41 18 22 1022.2 1022.1 -
22/10:30am 19.4 - - - - SE 41 46 22 25 1022.3 1022.2 -
22/10:00am 19.1 - - - - SE 46 54 25 29 1022.2 1022.1 -
22/09:30am 19.0 - - - - SE 41 48 22 26 1022.2 1022.1 -
22/09:00am 18.1 - - - - SE 35 52 19 28 1022.2 1022.1 -
22/08:54am 18.6 - - - - SE 30 52 16 28 1022.5 1022.4 -
22/08:30am 18.1 - - - - ESE 30 44 16 24 1022.3 1022.2 -
22/08:00am 18.1 - - - - SE 39 48 21 26 1022.2 1022.1 -
22/07:30am 19.0 - - - - SSE 33 41 18 22 1022.2 1022.1 -
22/07:00am 18.8 - - - - SE 35 41 19 22 1021.6 1021.5 -
22/06:30am 18.6 - - - - SE 35 41 19 22 1021.3 1021.2 -
22/06:00am 17.9 - - - - SSE 41 44 22 24 1020.8 1020.7 -
22/05:53am 18.1 - - - - SSE 39 43 21 23 1020.6 1020.5 -
22/05:30am 18.1 - - - - ESE 32 39 17 21 1021.0 1020.9 -
22/05:00am 17.5 - - - - SSE 35 43 19 23 1021.0 1020.9 -
22/04:30am 17.9 - - - - SE 35 43 19 23 1020.7 1020.6 -
22/04:00am 17.1 - - - - SE 28 35 15 19 1020.9 1020.8 -
22/03:52am 17.0 - - - - SE 32 50 17 27 1020.9 1020.8 -
22/03:30am 16.5 - - - - SSE 32 46 17 25 1020.6 1020.5 -
22/03:00am 17.3 - - - - SE 43 52 23 28 1021.1 1021.0 -
22/02:30am 18.7 - - - - SSE 44 54 24 29 1020.7 1020.6 -
22/02:00am 18.7 - - - - SSE 48 57 26 31 1020.8 1020.7 -
22/01:30am 18.9 - - - - SSE 39 48 21 26 1021.2 1021.1 -
22/01:00am 19.1 - - - - SSE 43 50 23 27 1021.6 1021.5 -
22/12:30am 19.2 - - - - SSE 41 50 22 27 1022.1 1022.0 -
22/12:00am 18.2 - - - - SSE 43 48 23 26 1022.4 1022.3 -
 
Date/Time
EST
Temp
°C
App
Temp
°C
Dew
Point
Rel
Hum
%
Delta-T
°C
Wind Press
QNH
hPa
Press
MSL
hPa
Rain
since 9 am
mm
Dir
 
Spd
km/h
Gust
km/h
Spd
kts
Gust
kts
21/11:30pm 18.6 - - - - SSE 35 41 19 22 1022.9 1022.8 -
21/11:00pm 18.6 - - - - SSE 39 48 21 26 1022.9 1022.8 -
21/10:30pm 18.1 - - - - SE 43 56 23 30 1023.3 1023.2 -
21/10:00pm 19.0 - - - - SE 44 52 24 28 1023.0 1022.9 -
21/09:46pm 18.3 - - - - S 33 54 18 29 1022.9 1022.8 -
21/09:30pm 17.7 - - - - SSE 32 35 17 19 1023.0 1022.9 -
21/09:00pm 17.6 - - - - SE 33 41 18 22 1023.7 1023.6 -
21/08:30pm 16.6 - - - - SSE 37 44 20 24 1023.6 1023.5 -
21/08:00pm 17.4 - - - - SSE 37 44 20 24 1023.2 1023.1 -
21/07:30pm 17.6 - - - - SE 28 32 15 17 1023.2 1023.1 -
21/07:00pm 16.7 - - - - SE 48 56 26 30 1022.6 1022.5 -
21/06:30pm 17.9 - - - - SE 46 54 25 29 1022.2 1022.1 -
21/06:00pm 17.1 - - - - ESE 44 52 24 28 1021.7 1021.6 -
21/05:30pm 17.9 - - - - ESE 48 56 26 30 1021.3 1021.2 -
21/05:00pm 19.8 - - - - ESE 41 52 22 28 1020.6 1020.5 -
21/04:30pm 20.2 - - - - ESE 37 43 20 23 1020.2 1020.1 -
21/04:00pm 20.5 - - - - ESE 37 43 20 23 1020.0 1019.9 -
21/03:30pm 20.8 - - - - ESE 37 41 20 22 1020.0 1019.9 -
21/03:00pm 21.1 - - - - ESE 39 43 21 23 1019.9 1019.8 -
21/02:30pm 21.2 - - - - ESE 37 43 20 23 1020.3 1020.2 -
21/02:00pm 21.0 - - - - ESE 37 43 20 23 1020.4 1020.3 -
21/01:30pm 20.8 - - - - ESE 35 41 19 22 1020.7 1020.6 -
21/01:00pm 21.0 - - - - ESE 37 46 20 25 1020.8 1020.7 -
21/12:30pm 21.4 - - - - ESE 35 41 19 22 1021.3 1021.2 -
21/12:00pm 21.3 - - - - ESE 33 41 18 22 1021.6 1021.5 -
21/11:30am 21.4 - - - - ESE 37 43 20 23 1021.7 1021.6 -
21/11:00am 20.9 - - - - SE 35 41 19 22 1022.2 1022.1 -
21/10:30am 20.8 - - - - ESE 37 44 20 24 1022.5 1022.4 -
21/10:00am 20.7 - - - - ESE 35 43 19 23 1022.7 1022.6 -
21/09:30am 20.4 - - - - SE 41 48 22 26 1022.6 1022.5 -
21/09:00am 20.0 - - - - SE 43 48 23 26 1022.4 1022.3 -
21/08:30am 20.1 - - - - SE 37 43 20 23 1022.6 1022.5 -
21/08:00am 19.7 - - - - SE 35 41 19 22 1022.5 1022.4 -
21/07:30am 20.1 - - - - SE 35 41 19 22 1021.8 1021.7 -
21/07:00am 21.4 - - - - E 28 33 15 18 1021.6 1021.5 -
21/06:30am 21.4 - - - - E 32 35 17 19 1021.1 1021.0 -
21/06:00am 21.2 - - - - E 26 30 14 16 1020.9 1020.8 -
21/05:30am 21.2 - - - - E 26 30 14 16 1020.5 1020.4 -
21/05:00am 21.1 - - - - E 22 28 12 15 1020.3 1020.2 -
21/04:30am 21.0 - - - - E 28 32 15 17 1019.8 1019.7 -
21/04:00am 21.3 - - - - E 24 28 13 15 1019.6 1019.5 -
21/03:30am 21.2 - - - - E 24 28 13 15 1019.5 1019.4 -
21/03:00am 21.2 - - - - E 22 26 12 14 1019.4 1019.3 -
21/02:30am 21.2 - - - - E 24 28 13 15 1019.6 1019.5 -
21/02:00am 21.1 - - - - E 22 26 12 14 1020.0 1019.9 -
21/01:30am 21.3 - - - - E 22 24 12 13 1020.3 1020.2 -
21/01:00am 21.3 - - - - E 22 28 12 15 1020.5 1020.4 -
21/12:30am 21.4 - - - - E 20 24 11 13 1020.6 1020.5 -
21/12:00am 21.4 - - - - E 17 19 9 10 1020.9 1020.8 -
 
Date/Time
EST
Temp
°C
App
Temp
°C
Dew
Point
Rel
Hum
%
Delta-T
°C
Wind Press
QNH
hPa
Press
MSL
hPa
Rain
since 9 am
mm
Dir
 
Spd
km/h
Gust
km/h
Spd
kts
Gust
kts
20/11:30pm 21.3 - - - - E 19 22 10 12 1020.8 1020.7 -
20/11:00pm 21.4 - - - - ENE 22 26 12 14 1020.8 1020.7 -
20/10:30pm 21.4 - - - - ENE 22 26 12 14 1020.5 1020.4 -
20/10:00pm 21.6 - - - - ENE 24 26 13 14 1020.6 1020.5 -
20/09:30pm 21.5 - - - - ENE 20 24 11 13 1020.7 1020.6 -
20/09:00pm 21.5 - - - - ENE 19 22 10 12 1020.5 1020.4 -
20/08:30pm 21.5 - - - - ENE 20 24 11 13 1020.1 1020.0 -
20/08:00pm 21.6 - - - - ENE 24 28 13 15 1019.4 1019.3 -
20/07:30pm 21.7 - - - - ENE 24 28 13 15 1019.1 1019.0 -
20/07:00pm 21.7 - - - - ENE 22 28 12 15 1018.7 1018.6 -
20/06:30pm 21.8 - - - - ENE 22 26 12 14 1018.2 1018.1 -
20/06:00pm 21.7 - - - - E 24 26 13 14 1017.7 1017.6 -
20/05:30pm 21.7 - - - - E 24 28 13 15 1017.2 1017.1 -
20/05:00pm 22.1 - - - - ENE 24 28 13 15 1016.9 1016.8 -
20/04:30pm 22.2 - - - - ENE 24 28 13 15 1016.6 1016.5 -
20/04:00pm 22.2 - - - - E 22 24 12 13 1016.5 1016.4 -
20/03:30pm 22.3 - - - - E 19 22 10 12 1016.4 1016.3 -
20/03:00pm 22.8 - - - - ENE 17 20 9 11 1016.4 1016.3 -
20/02:30pm 23.1 - - - - ENE 13 15 7 8 1016.8 1016.7 -

Other Formats:

Comma delimited format used in spreadsheet applications
http://www.bom.gov.au/fwo/IDQ60801/IDQ60801.94378.axf

JavaScript Object Notation format (JSON) in row-major order
http://www.bom.gov.au/fwo/IDQ60801/IDQ60801.94378.json